sensor_id;sensor_type;location;lat;lon;timestamp;temperature;humidity
32139;DHT22;18644;48.700;9.210;2023-01-23T00:01:02;4.30;66.50
32139;DHT22;18644;48.700;9.210;2023-01-23T00:03:31;4.30;66.50
32139;DHT22;18644;48.700;9.210;2023-01-23T00:05:59;4.30;66.40
32139;DHT22;18644;48.700;9.210;2023-01-23T00:08:27;4.20;66.40
32139;DHT22;18644;48.700;9.210;2023-01-23T00:10:57;4.20;66.40
32139;DHT22;18644;48.700;9.210;2023-01-23T00:13:24;4.20;66.40
32139;DHT22;18644;48.700;9.210;2023-01-23T00:15:51;4.20;66.40
32139;DHT22;18644;48.700;9.210;2023-01-23T00:18:18;4.20;66.40
32139;DHT22;18644;48.700;9.210;2023-01-23T00:20:46;4.10;66.30
32139;DHT22;18644;48.700;9.210;2023-01-23T00:23:13;4.10;66.40
32139;DHT22;18644;48.700;9.210;2023-01-23T00:25:40;4.10;66.40
32139;DHT22;18644;48.700;9.210;2023-01-23T00:28:07;4.10;66.50
32139;DHT22;18644;48.700;9.210;2023-01-23T00:30:33;4.00;66.40
32139;DHT22;18644;48.700;9.210;2023-01-23T00:33:00;4.00;66.50
32139;DHT22;18644;48.700;9.210;2023-01-23T00:35:27;4.10;66.60
32139;DHT22;18644;48.700;9.210;2023-01-23T00:37:55;4.00;66.60
32139;DHT22;18644;48.700;9.210;2023-01-23T00:40:23;4.00;66.60
32139;DHT22;18644;48.700;9.210;2023-01-23T00:42:55;4.00;66.60
32139;DHT22;18644;48.700;9.210;2023-01-23T00:45:26;4.10;66.80
32139;DHT22;18644;48.700;9.210;2023-01-23T00:47:53;4.00;66.70
32139;DHT22;18644;48.700;9.210;2023-01-23T00:50:20;4.10;66.70
32139;DHT22;18644;48.700;9.210;2023-01-23T00:52:47;4.10;66.70
32139;DHT22;18644;48.700;9.210;2023-01-23T00:55:15;4.10;66.70
32139;DHT22;18644;48.700;9.210;2023-01-23T00:57:42;4.10;66.70
32139;DHT22;18644;48.700;9.210;2023-01-23T01:00:10;4.10;66.70
32139;DHT22;18644;48.700;9.210;2023-01-23T01:02:37;4.10;66.70
32139;DHT22;18644;48.700;9.210;2023-01-23T01:05:05;4.10;66.70
32139;DHT22;18644;48.700;9.210;2023-01-23T01:07:32;4.10;66.70
32139;DHT22;18644;48.700;9.210;2023-01-23T01:09:59;4.10;66.60
32139;DHT22;18644;48.700;9.210;2023-01-23T01:12:27;4.10;66.70
32139;DHT22;18644;48.700;9.210;2023-01-23T01:14:57;4.10;66.70
32139;DHT22;18644;48.700;9.210;2023-01-23T01:17:28;4.10;66.70
32139;DHT22;18644;48.700;9.210;2023-01-23T01:19:58;4.10;66.60
32139;DHT22;18644;48.700;9.210;2023-01-23T01:22:25;4.10;66.60
32139;DHT22;18644;48.700;9.210;2023-01-23T01:24:52;4.10;67.30
32139;DHT22;18644;48.700;9.210;2023-01-23T01:27:19;4.10;66.60
32139;DHT22;18644;48.700;9.210;2023-01-23T01:29:47;4.10;66.60
32139;DHT22;18644;48.700;9.210;2023-01-23T01:32:14;4.20;66.80
32139;DHT22;18644;48.700;9.210;2023-01-23T01:34:41;4.20;66.70
32139;DHT22;18644;48.700;9.210;2023-01-23T01:37:09;4.20;66.70
32139;DHT22;18644;48.700;9.210;2023-01-23T01:39:35;4.20;66.70
32139;DHT22;18644;48.700;9.210;2023-01-23T01:42:05;4.20;66.70
32139;DHT22;18644;48.700;9.210;2023-01-23T01:44:55;4.20;66.70
32139;DHT22;18644;48.700;9.210;2023-01-23T01:47:23;4.20;66.80
32139;DHT22;18644;48.700;9.210;2023-01-23T01:49:53;4.20;66.70
32139;DHT22;18644;48.700;9.210;2023-01-23T01:52:25;4.10;66.70
32139;DHT22;18644;48.700;9.210;2023-01-23T01:54:57;4.20;66.80
32139;DHT22;18644;48.700;9.210;2023-01-23T01:57:33;4.20;66.70
32139;DHT22;18644;48.700;9.210;2023-01-23T02:00:07;4.20;66.70
32139;DHT22;18644;48.700;9.210;2023-01-23T02:02:41;4.20;66.80
32139;DHT22;18644;48.700;9.210;2023-01-23T02:05:11;4.20;66.70
32139;DHT22;18644;48.700;9.210;2023-01-23T02:07:47;4.20;66.70
32139;DHT22;18644;48.700;9.210;2023-01-23T02:10:15;4.20;66.70
32139;DHT22;18644;48.700;9.210;2023-01-23T02:12:44;4.20;66.70
32139;DHT22;18644;48.700;9.210;2023-01-23T02:15:14;4.20;66.70
32139;DHT22;18644;48.700;9.210;2023-01-23T02:17:42;4.20;66.70
32139;DHT22;18644;48.700;9.210;2023-01-23T02:20:16;4.20;66.70
32139;DHT22;18644;48.700;9.210;2023-01-23T02:22:52;4.20;66.60
32139;DHT22;18644;48.700;9.210;2023-01-23T02:25:28;4.30;66.70
32139;DHT22;18644;48.700;9.210;2023-01-23T02:28:04;4.30;66.60
32139;DHT22;18644;48.700;9.210;2023-01-23T02:30:34;4.30;66.50
32139;DHT22;18644;48.700;9.210;2023-01-23T02:33:08;4.30;66.50
32139;DHT22;18644;48.700;9.210;2023-01-23T02:35:38;4.20;66.40
32139;DHT22;18644;48.700;9.210;2023-01-23T02:38:05;4.20;66.40
32139;DHT22;18644;48.700;9.210;2023-01-23T02:40:35;4.30;66.50
32139;DHT22;18644;48.700;9.210;2023-01-23T02:43:06;4.30;66.50
32139;DHT22;18644;48.700;9.210;2023-01-23T02:45:35;4.30;66.50
32139;DHT22;18644;48.700;9.210;2023-01-23T02:48:06;4.30;66.50
32139;DHT22;18644;48.700;9.210;2023-01-23T02:50:34;4.30;66.40
32139;DHT22;18644;48.700;9.210;2023-01-23T02:53:01;4.30;66.40
32139;DHT22;18644;48.700;9.210;2023-01-23T02:55:31;4.30;66.40
32139;DHT22;18644;48.700;9.210;2023-01-23T02:57:59;4.30;66.40
32139;DHT22;18644;48.700;9.210;2023-01-23T03:00:42;4.30;66.30
32139;DHT22;18644;48.700;9.210;2023-01-23T03:03:09;4.30;66.30
32139;DHT22;18644;48.700;9.210;2023-01-23T03:05:36;4.30;66.30
32139;DHT22;18644;48.700;9.210;2023-01-23T03:08:04;4.30;66.30
32139;DHT22;18644;48.700;9.210;2023-01-23T03:10:31;4.20;66.20
32139;DHT22;18644;48.700;9.210;2023-01-23T03:12:58;4.30;66.30
32139;DHT22;18644;48.700;9.210;2023-01-23T03:15:27;4.20;66.30
32139;DHT22;18644;48.700;9.210;2023-01-23T03:17:56;4.20;67.00
32139;DHT22;18644;48.700;9.210;2023-01-23T03:20:23;4.20;66.30
32139;DHT22;18644;48.700;9.210;2023-01-23T03:22:51;4.20;66.40
32139;DHT22;18644;48.700;9.210;2023-01-23T03:25:18;4.20;66.30
32139;DHT22;18644;48.700;9.210;2023-01-23T03:27:46;4.20;66.40
32139;DHT22;18644;48.700;9.210;2023-01-23T03:30:14;4.20;66.40
32139;DHT22;18644;48.700;9.210;2023-01-23T03:32:42;4.20;66.40
32139;DHT22;18644;48.700;9.210;2023-01-23T03:35:11;4.20;66.40
32139;DHT22;18644;48.700;9.210;2023-01-23T03:37:40;4.20;66.40
32139;DHT22;18644;48.700;9.210;2023-01-23T03:40:13;4.20;66.40
32139;DHT22;18644;48.700;9.210;2023-01-23T03:42:59;4.20;66.40
32139;DHT22;18644;48.700;9.210;2023-01-23T03:45:26;4.20;66.50
32139;DHT22;18644;48.700;9.210;2023-01-23T03:47:53;4.20;66.40
32139;DHT22;18644;48.700;9.210;2023-01-23T03:50:21;4.20;66.50
32139;DHT22;18644;48.700;9.210;2023-01-23T03:52:48;4.20;66.50
32139;DHT22;18644;48.700;9.210;2023-01-23T03:55:15;4.20;66.50
32139;DHT22;18644;48.700;9.210;2023-01-23T03:57:42;4.20;66.50
32139;DHT22;18644;48.700;9.210;2023-01-23T04:00:10;4.20;66.50
32139;DHT22;18644;48.700;9.210;2023-01-23T04:02:42;4.20;66.50
32139;DHT22;18644;48.700;9.210;2023-01-23T04:05:09;4.20;66.50
32139;DHT22;18644;48.700;9.210;2023-01-23T04:07:37;4.20;66.50
32139;DHT22;18644;48.700;9.210;2023-01-23T04:10:08;4.20;66.50
32139;DHT22;18644;48.700;9.210;2023-01-23T04:12:35;4.20;66.60
32139;DHT22;18644;48.700;9.210;2023-01-23T04:15:03;4.20;66.40
32139;DHT22;18644;48.700;9.210;2023-01-23T04:17:35;4.20;66.40
32139;DHT22;18644;48.700;9.210;2023-01-23T04:20:02;4.20;66.40
32139;DHT22;18644;48.700;9.210;2023-01-23T04:22:30;4.20;66.50
32139;DHT22;18644;48.700;9.210;2023-01-23T04:24:59;4.20;66.50
32139;DHT22;18644;48.700;9.210;2023-01-23T04:27:26;4.20;66.60
32139;DHT22;18644;48.700;9.210;2023-01-23T04:29:54;4.20;66.60
32139;DHT22;18644;48.700;9.210;2023-01-23T04:32:22;4.20;66.60
32139;DHT22;18644;48.700;9.210;2023-01-23T04:34:49;4.20;66.60
32139;DHT22;18644;48.700;9.210;2023-01-23T04:37:16;4.20;66.70
32139;DHT22;18644;48.700;9.210;2023-01-23T04:39:43;4.20;66.70
32139;DHT22;18644;48.700;9.210;2023-01-23T04:42:12;4.20;66.80
32139;DHT22;18644;48.700;9.210;2023-01-23T04:44:39;4.20;66.70
32139;DHT22;18644;48.700;9.210;2023-01-23T04:47:05;4.30;66.80
32139;DHT22;18644;48.700;9.210;2023-01-23T04:49:32;4.30;66.80
32139;DHT22;18644;48.700;9.210;2023-01-23T04:52:02;4.30;66.70
32139;DHT22;18644;48.700;9.210;2023-01-23T04:54:30;4.20;66.60
32139;DHT22;18644;48.700;9.210;2023-01-23T04:56:57;4.30;66.70
32139;DHT22;18644;48.700;9.210;2023-01-23T04:59:35;4.30;66.60
32139;DHT22;18644;48.700;9.210;2023-01-23T05:02:04;4.30;66.70
32139;DHT22;18644;48.700;9.210;2023-01-23T05:04:31;4.30;66.60
32139;DHT22;18644;48.700;9.210;2023-01-23T05:07:02;4.30;66.50
32139;DHT22;18644;48.700;9.210;2023-01-23T05:09:29;4.30;66.50
32139;DHT22;18644;48.700;9.210;2023-01-23T05:11:59;4.30;66.50
32139;DHT22;18644;48.700;9.210;2023-01-23T05:14:27;4.30;66.50
32139;DHT22;18644;48.700;9.210;2023-01-23T05:16:54;4.30;66.50
32139;DHT22;18644;48.700;9.210;2023-01-23T05:19:21;4.30;66.50
32139;DHT22;18644;48.700;9.210;2023-01-23T05:21:49;4.20;66.50
32139;DHT22;18644;48.700;9.210;2023-01-23T05:24:15;4.20;66.50
32139;DHT22;18644;48.700;9.210;2023-01-23T05:26:42;4.20;66.50
32139;DHT22;18644;48.700;9.210;2023-01-23T05:29:09;4.20;66.50
32139;DHT22;18644;48.700;9.210;2023-01-23T05:31:37;4.20;66.60
32139;DHT22;18644;48.700;9.210;2023-01-23T05:34:04;4.20;66.60
32139;DHT22;18644;48.700;9.210;2023-01-23T05:36:31;4.20;66.50
32139;DHT22;18644;48.700;9.210;2023-01-23T05:38:58;4.20;66.50
32139;DHT22;18644;48.700;9.210;2023-01-23T05:41:25;4.20;66.50
32139;DHT22;18644;48.700;9.210;2023-01-23T05:43:52;4.20;66.40
32139;DHT22;18644;48.700;9.210;2023-01-23T05:46:24;4.20;66.50
32139;DHT22;18644;48.700;9.210;2023-01-23T05:48:52;4.20;66.50
32139;DHT22;18644;48.700;9.210;2023-01-23T05:51:22;4.20;66.50
32139;DHT22;18644;48.700;9.210;2023-01-23T05:53:55;4.20;66.60
32139;DHT22;18644;48.700;9.210;2023-01-23T05:56:23;4.20;66.60
32139;DHT22;18644;48.700;9.210;2023-01-23T05:58:50;4.20;66.60
32139;DHT22;18644;48.700;9.210;2023-01-23T06:01:17;4.20;66.60
32139;DHT22;18644;48.700;9.210;2023-01-23T06:03:45;4.20;66.60
32139;DHT22;18644;48.700;9.210;2023-01-23T06:06:14;4.20;66.60
32139;DHT22;18644;48.700;9.210;2023-01-23T06:08:41;4.20;66.50
32139;DHT22;18644;48.700;9.210;2023-01-23T06:11:08;4.20;66.50
32139;DHT22;18644;48.700;9.210;2023-01-23T06:13:35;4.20;66.60
32139;DHT22;18644;48.700;9.210;2023-01-23T06:16:02;4.20;66.60
32139;DHT22;18644;48.700;9.210;2023-01-23T06:18:29;4.20;66.60
32139;DHT22;18644;48.700;9.210;2023-01-23T06:20:57;4.20;66.60
32139;DHT22;18644;48.700;9.210;2023-01-23T06:23:27;4.20;66.60
32139;DHT22;18644;48.700;9.210;2023-01-23T06:25:58;4.20;66.60
32139;DHT22;18644;48.700;9.210;2023-01-23T06:28:26;4.20;66.50
32139;DHT22;18644;48.700;9.210;2023-01-23T06:30:53;4.20;66.50
32139;DHT22;18644;48.700;9.210;2023-01-23T06:33:20;4.20;66.60
32139;DHT22;18644;48.700;9.210;2023-01-23T06:35:47;4.20;66.60
32139;DHT22;18644;48.700;9.210;2023-01-23T06:38:14;4.20;66.60
32139;DHT22;18644;48.700;9.210;2023-01-23T06:40:42;4.20;66.50
32139;DHT22;18644;48.700;9.210;2023-01-23T06:43:09;4.20;66.60
32139;DHT22;18644;48.700;9.210;2023-01-23T06:45:36;4.20;66.50
32139;DHT22;18644;48.700;9.210;2023-01-23T06:48:03;4.20;66.50
32139;DHT22;18644;48.700;9.210;2023-01-23T06:50:31;4.20;66.50
32139;DHT22;18644;48.700;9.210;2023-01-23T06:52:57;4.20;66.50
32139;DHT22;18644;48.700;9.210;2023-01-23T06:55:24;4.10;66.50
32139;DHT22;18644;48.700;9.210;2023-01-23T06:57:53;4.10;66.50
32139;DHT22;18644;48.700;9.210;2023-01-23T07:00:20;4.10;66.60
32139;DHT22;18644;48.700;9.210;2023-01-23T07:02:47;4.10;66.70
32139;DHT22;18644;48.700;9.210;2023-01-23T07:05:15;4.10;66.70
32139;DHT22;18644;48.700;9.210;2023-01-23T07:07:42;4.10;66.70
32139;DHT22;18644;48.700;9.210;2023-01-23T07:10:09;4.10;66.80
32139;DHT22;18644;48.700;9.210;2023-01-23T07:12:37;4.10;66.90
32139;DHT22;18644;48.700;9.210;2023-01-23T07:15:06;4.10;66.90
32139;DHT22;18644;48.700;9.210;2023-01-23T07:17:34;4.10;66.90
32139;DHT22;18644;48.700;9.210;2023-01-23T07:20:01;4.10;66.90
32139;DHT22;18644;48.700;9.210;2023-01-23T07:22:28;4.10;66.90
32139;DHT22;18644;48.700;9.210;2023-01-23T07:24:55;4.10;66.90
32139;DHT22;18644;48.700;9.210;2023-01-23T07:27:22;4.10;66.80
32139;DHT22;18644;48.700;9.210;2023-01-23T07:29:49;4.10;66.90
32139;DHT22;18644;48.700;9.210;2023-01-23T07:32:17;4.10;66.80
32139;DHT22;18644;48.700;9.210;2023-01-23T07:34:44;4.10;66.80
32139;DHT22;18644;48.700;9.210;2023-01-23T07:37:10;4.10;66.60
32139;DHT22;18644;48.700;9.210;2023-01-23T07:39:37;4.10;66.60
32139;DHT22;18644;48.700;9.210;2023-01-23T07:42:04;4.10;66.50
32139;DHT22;18644;48.700;9.210;2023-01-23T07:44:31;4.10;66.50
32139;DHT22;18644;48.700;9.210;2023-01-23T07:46:58;4.10;66.50
32139;DHT22;18644;48.700;9.210;2023-01-23T07:49:26;4.10;66.50
32139;DHT22;18644;48.700;9.210;2023-01-23T07:51:53;4.10;66.50
32139;DHT22;18644;48.700;9.210;2023-01-23T07:54:20;4.10;66.50
32139;DHT22;18644;48.700;9.210;2023-01-23T07:56:48;4.10;66.50
32139;DHT22;18644;48.700;9.210;2023-01-23T07:59:15;4.10;66.50
32139;DHT22;18644;48.700;9.210;2023-01-23T08:01:43;4.10;66.40
32139;DHT22;18644;48.700;9.210;2023-01-23T08:04:10;4.10;66.50
32139;DHT22;18644;48.700;9.210;2023-01-23T08:06:38;4.10;66.50
32139;DHT22;18644;48.700;9.210;2023-01-23T08:09:05;4.10;66.60
32139;DHT22;18644;48.700;9.210;2023-01-23T08:11:32;4.10;66.70
32139;DHT22;18644;48.700;9.210;2023-01-23T08:13:59;4.10;66.60
32139;DHT22;18644;48.700;9.210;2023-01-23T08:16:26;4.10;66.50
32139;DHT22;18644;48.700;9.210;2023-01-23T08:18:53;4.10;66.50
32139;DHT22;18644;48.700;9.210;2023-01-23T08:21:20;4.20;66.50
32139;DHT22;18644;48.700;9.210;2023-01-23T08:23:49;4.20;66.60
32139;DHT22;18644;48.700;9.210;2023-01-23T08:26:16;4.20;66.60
32139;DHT22;18644;48.700;9.210;2023-01-23T08:28:44;4.20;66.70
32139;DHT22;18644;48.700;9.210;2023-01-23T08:31:12;4.20;66.60
32139;DHT22;18644;48.700;9.210;2023-01-23T08:33:39;4.30;66.70
32139;DHT22;18644;48.700;9.210;2023-01-23T08:36:07;4.30;66.80
32139;DHT22;18644;48.700;9.210;2023-01-23T08:38:34;4.30;66.70
32139;DHT22;18644;48.700;9.210;2023-01-23T08:41:03;4.30;66.70
32139;DHT22;18644;48.700;9.210;2023-01-23T08:43:31;4.30;66.80
32139;DHT22;18644;48.700;9.210;2023-01-23T08:46:01;4.30;66.70
32139;DHT22;18644;48.700;9.210;2023-01-23T08:48:29;4.40;66.80
32139;DHT22;18644;48.700;9.210;2023-01-23T08:51:00;4.40;66.70
32139;DHT22;18644;48.700;9.210;2023-01-23T08:53:28;4.40;66.80
32139;DHT22;18644;48.700;9.210;2023-01-23T08:55:59;4.40;66.70
32139;DHT22;18644;48.700;9.210;2023-01-23T08:58:28;4.40;66.70
32139;DHT22;18644;48.700;9.210;2023-01-23T09:00:55;4.50;66.60
32139;DHT22;18644;48.700;9.210;2023-01-23T09:03:22;4.40;66.50
32139;DHT22;18644;48.700;9.210;2023-01-23T09:05:50;4.50;66.60
32139;DHT22;18644;48.700;9.210;2023-01-23T09:08:21;4.50;66.60
32139;DHT22;18644;48.700;9.210;2023-01-23T09:10:48;4.50;66.60
32139;DHT22;18644;48.700;9.210;2023-01-23T09:13:15;4.50;66.60
32139;DHT22;18644;48.700;9.210;2023-01-23T09:15:45;4.60;66.60
32139;DHT22;18644;48.700;9.210;2023-01-23T09:18:12;4.60;66.50
32139;DHT22;18644;48.700;9.210;2023-01-23T09:20:39;4.70;66.50
32139;DHT22;18644;48.700;9.210;2023-01-23T09:23:06;4.70;66.50
32139;DHT22;18644;48.700;9.210;2023-01-23T09:25:33;4.80;66.40
32139;DHT22;18644;48.700;9.210;2023-01-23T09:28:00;4.80;66.30
32139;DHT22;18644;48.700;9.210;2023-01-23T09:30:27;4.80;66.20
32139;DHT22;18644;48.700;9.210;2023-01-23T09:32:55;4.90;65.90
32139;DHT22;18644;48.700;9.210;2023-01-23T09:35:22;5.00;65.80
32139;DHT22;18644;48.700;9.210;2023-01-23T09:37:50;5.00;65.50
32139;DHT22;18644;48.700;9.210;2023-01-23T09:40:27;5.00;65.30
32139;DHT22;18644;48.700;9.210;2023-01-23T09:43:00;5.00;65.10
32139;DHT22;18644;48.700;9.210;2023-01-23T09:45:31;5.00;65.00
32139;DHT22;18644;48.700;9.210;2023-01-23T09:48:09;5.00;64.80
32139;DHT22;18644;48.700;9.210;2023-01-23T09:50:51;5.00;64.70
32139;DHT22;18644;48.700;9.210;2023-01-23T09:53:23;5.00;64.60
32139;DHT22;18644;48.700;9.210;2023-01-23T09:55:56;5.00;64.60
32139;DHT22;18644;48.700;9.210;2023-01-23T09:58:29;5.00;64.30
32139;DHT22;18644;48.700;9.210;2023-01-23T10:00:57;5.00;64.30
32139;DHT22;18644;48.700;9.210;2023-01-23T10:03:28;5.00;64.30
32139;DHT22;18644;48.700;9.210;2023-01-23T10:06:07;5.00;64.30
32139;DHT22;18644;48.700;9.210;2023-01-23T10:08:52;5.00;64.30
32139;DHT22;18644;48.700;9.210;2023-01-23T10:11:33;5.10;64.60
32139;DHT22;18644;48.700;9.210;2023-01-23T10:14:19;5.10;64.60
32139;DHT22;18644;48.700;9.210;2023-01-23T10:17:02;5.20;64.70
32139;DHT22;18644;48.700;9.210;2023-01-23T10:20:09;5.30;64.80
32139;DHT22;18644;48.700;9.210;2023-01-23T10:22:47;5.30;64.40
32139;DHT22;18644;48.700;9.210;2023-01-23T10:25:20;5.40;64.40
32139;DHT22;18644;48.700;9.210;2023-01-23T10:27:50;5.40;64.30
32139;DHT22;18644;48.700;9.210;2023-01-23T10:30:25;5.50;64.40
32139;DHT22;18644;48.700;9.210;2023-01-23T10:33:00;5.60;64.10
32139;DHT22;18644;48.700;9.210;2023-01-23T10:35:35;5.60;63.80
32139;DHT22;18644;48.700;9.210;2023-01-23T10:38:17;5.60;63.50
32139;DHT22;18644;48.700;9.210;2023-01-23T10:40:54;5.60;63.20
32139;DHT22;18644;48.700;9.210;2023-01-23T10:43:46;5.60;63.10
32139;DHT22;18644;48.700;9.210;2023-01-23T10:46:15;5.60;62.80
32139;DHT22;18644;48.700;9.210;2023-01-23T10:48:45;5.60;62.60
32139;DHT22;18644;48.700;9.210;2023-01-23T10:51:41;5.60;62.50
32139;DHT22;18644;48.700;9.210;2023-01-23T10:54:15;5.60;62.40
32139;DHT22;18644;48.700;9.210;2023-01-23T10:56:52;5.50;62.50
32139;DHT22;18644;48.700;9.210;2023-01-23T10:59:28;5.50;62.60
32139;DHT22;18644;48.700;9.210;2023-01-23T11:02:01;5.50;62.80
32139;DHT22;18644;48.700;9.210;2023-01-23T11:04:35;5.50;63.00
32139;DHT22;18644;48.700;9.210;2023-01-23T11:07:07;5.50;63.00
32139;DHT22;18644;48.700;9.210;2023-01-23T11:09:49;5.50;62.70
32139;DHT22;18644;48.700;9.210;2023-01-23T11:12:20;5.50;62.70
32139;DHT22;18644;48.700;9.210;2023-01-23T11:14:48;5.50;62.90
32139;DHT22;18644;48.700;9.210;2023-01-23T11:17:20;5.50;62.90
32139;DHT22;18644;48.700;9.210;2023-01-23T11:19:50;5.60;63.10
32139;DHT22;18644;48.700;9.210;2023-01-23T11:22:27;5.60;63.10
32139;DHT22;18644;48.700;9.210;2023-01-23T11:24:56;5.70;63.90
32139;DHT22;18644;48.700;9.210;2023-01-23T11:27:25;5.70;63.00
32139;DHT22;18644;48.700;9.210;2023-01-23T11:30:20;5.70;63.40
32139;DHT22;18644;48.700;9.210;2023-01-23T11:32:57;5.80;63.00
32139;DHT22;18644;48.700;9.210;2023-01-23T11:35:27;5.80;62.80
32139;DHT22;18644;48.700;9.210;2023-01-23T11:38:15;5.80;62.40
32139;DHT22;18644;48.700;9.210;2023-01-23T11:40:43;5.80;62.70
32139;DHT22;18644;48.700;9.210;2023-01-23T11:43:13;5.80;62.70
32139;DHT22;18644;48.700;9.210;2023-01-23T11:45:48;5.80;62.60
32139;DHT22;18644;48.700;9.210;2023-01-23T11:48:40;5.80;62.50
32139;DHT22;18644;48.700;9.210;2023-01-23T11:51:27;5.80;62.40
32139;DHT22;18644;48.700;9.210;2023-01-23T11:54:09;5.80;62.40
32139;DHT22;18644;48.700;9.210;2023-01-23T11:56:54;5.80;62.30
32139;DHT22;18644;48.700;9.210;2023-01-23T11:59:51;5.80;62.30
32139;DHT22;18644;48.700;9.210;2023-01-23T12:02:47;5.80;62.30
32139;DHT22;18644;48.700;9.210;2023-01-23T12:05:45;5.80;62.30
32139;DHT22;18644;48.700;9.210;2023-01-23T12:08:27;5.80;62.10
32139;DHT22;18644;48.700;9.210;2023-01-23T12:11:07;5.80;62.20
32139;DHT22;18644;48.700;9.210;2023-01-23T12:14:02;5.80;62.30
32139;DHT22;18644;48.700;9.210;2023-01-23T12:16:49;5.70;62.30
32139;DHT22;18644;48.700;9.210;2023-01-23T12:19:34;5.80;62.70
32139;DHT22;18644;48.700;9.210;2023-01-23T12:22:14;5.80;62.80
32139;DHT22;18644;48.700;9.210;2023-01-23T12:24:56;5.80;62.90
32139;DHT22;18644;48.700;9.210;2023-01-23T12:27:39;5.90;63.00
32139;DHT22;18644;48.700;9.210;2023-01-23T12:30:23;6.00;63.10
32139;DHT22;18644;48.700;9.210;2023-01-23T12:33:17;6.00;62.90
32139;DHT22;18644;48.700;9.210;2023-01-23T12:35:53;6.00;62.80
32139;DHT22;18644;48.700;9.210;2023-01-23T12:38:31;6.10;62.80
32139;DHT22;18644;48.700;9.210;2023-01-23T12:41:12;6.20;62.70
32139;DHT22;18644;48.700;9.210;2023-01-23T12:43:46;6.20;62.60
32139;DHT22;18644;48.700;9.210;2023-01-23T12:46:20;6.20;62.60
32139;DHT22;18644;48.700;9.210;2023-01-23T12:48:54;6.30;62.80
32139;DHT22;18644;48.700;9.210;2023-01-23T12:51:29;6.30;62.90
32139;DHT22;18644;48.700;9.210;2023-01-23T12:54:00;6.40;62.50
32139;DHT22;18644;48.700;9.210;2023-01-23T12:56:33;6.40;62.30
32139;DHT22;18644;48.700;9.210;2023-01-23T12:59:07;6.40;62.10
32139;DHT22;18644;48.700;9.210;2023-01-23T13:01:54;6.40;61.90
32139;DHT22;18644;48.700;9.210;2023-01-23T13:04:45;6.40;61.90
32139;DHT22;18644;48.700;9.210;2023-01-23T13:07:27;6.30;61.90
32139;DHT22;18644;48.700;9.210;2023-01-23T13:10:19;6.30;62.10
32139;DHT22;18644;48.700;9.210;2023-01-23T13:13:23;6.30;61.90
32139;DHT22;18644;48.700;9.210;2023-01-23T13:16:09;6.40;62.00
32139;DHT22;18644;48.700;9.210;2023-01-23T13:18:37;6.30;61.80
32139;DHT22;18644;48.700;9.210;2023-01-23T13:21:22;6.30;62.00
32139;DHT22;18644;48.700;9.210;2023-01-23T13:24:29;6.30;62.00
32139;DHT22;18644;48.700;9.210;2023-01-23T13:27:40;6.40;62.10
32139;DHT22;18644;48.700;9.210;2023-01-23T13:30:40;6.40;62.20
32139;DHT22;18644;48.700;9.210;2023-01-23T13:36:37;6.50;62.20
32139;DHT22;18644;48.700;9.210;2023-01-23T13:39:20;6.50;62.20
32139;DHT22;18644;48.700;9.210;2023-01-23T13:45:25;6.50;61.80
32139;DHT22;18644;48.700;9.210;2023-01-23T13:48:12;6.50;61.90
32139;DHT22;18644;48.700;9.210;2023-01-23T13:51:15;6.50;61.80
32139;DHT22;18644;48.700;9.210;2023-01-23T13:53:46;6.50;61.80
32139;DHT22;18644;48.700;9.210;2023-01-23T13:56:34;6.50;61.70
32139;DHT22;18644;48.700;9.210;2023-01-23T13:59:10;6.50;61.80
32139;DHT22;18644;48.700;9.210;2023-01-23T14:01:46;6.50;61.70
32139;DHT22;18644;48.700;9.210;2023-01-23T14:04:39;6.50;61.80
32139;DHT22;18644;48.700;9.210;2023-01-23T14:07:28;6.50;61.80
32139;DHT22;18644;48.700;9.210;2023-01-23T14:10:19;6.40;61.80
32139;DHT22;18644;48.700;9.210;2023-01-23T14:12:49;6.40;61.70
32139;DHT22;18644;48.700;9.210;2023-01-23T14:15:21;6.40;61.70
32139;DHT22;18644;48.700;9.210;2023-01-23T14:18:16;6.40;61.60
32139;DHT22;18644;48.700;9.210;2023-01-23T14:20:47;6.40;61.70
32139;DHT22;18644;48.700;9.210;2023-01-23T14:23:23;6.40;61.80
32139;DHT22;18644;48.700;9.210;2023-01-23T14:25:53;6.40;61.90
32139;DHT22;18644;48.700;9.210;2023-01-23T14:28:21;6.40;61.80
32139;DHT22;18644;48.700;9.210;2023-01-23T14:30:56;6.40;61.80
32139;DHT22;18644;48.700;9.210;2023-01-23T14:33:25;6.40;61.80
32139;DHT22;18644;48.700;9.210;2023-01-23T14:35:54;6.40;61.90
32139;DHT22;18644;48.700;9.210;2023-01-23T14:38:30;6.30;61.90
32139;DHT22;18644;48.700;9.210;2023-01-23T14:41:03;6.30;61.90
32139;DHT22;18644;48.700;9.210;2023-01-23T14:43:31;6.30;62.00
32139;DHT22;18644;48.700;9.210;2023-01-23T14:46:02;6.30;62.00
32139;DHT22;18644;48.700;9.210;2023-01-23T14:48:33;6.20;62.00
32139;DHT22;18644;48.700;9.210;2023-01-23T14:51:15;6.20;62.00
32139;DHT22;18644;48.700;9.210;2023-01-23T14:53:51;6.20;62.10
32139;DHT22;18644;48.700;9.210;2023-01-23T14:56:20;6.10;62.20
32139;DHT22;18644;48.700;9.210;2023-01-23T14:58:49;6.10;62.30
32139;DHT22;18644;48.700;9.210;2023-01-23T15:01:17;6.10;62.30
32139;DHT22;18644;48.700;9.210;2023-01-23T15:03:54;6.10;62.30
32139;DHT22;18644;48.700;9.210;2023-01-23T15:06:24;6.10;62.40
32139;DHT22;18644;48.700;9.210;2023-01-23T15:09:05;6.10;62.40
32139;DHT22;18644;48.700;9.210;2023-01-23T15:11:34;6.10;62.40
32139;DHT22;18644;48.700;9.210;2023-01-23T15:14:01;6.00;62.40
32139;DHT22;18644;48.700;9.210;2023-01-23T15:16:31;6.00;62.50
32139;DHT22;18644;48.700;9.210;2023-01-23T15:19:05;6.00;62.60
32139;DHT22;18644;48.700;9.210;2023-01-23T15:21:36;6.00;62.60
32139;DHT22;18644;48.700;9.210;2023-01-23T15:24:16;6.00;62.70
32139;DHT22;18644;48.700;9.210;2023-01-23T15:27:00;6.00;62.70
32139;DHT22;18644;48.700;9.210;2023-01-23T15:29:29;5.90;62.70
32139;DHT22;18644;48.700;9.210;2023-01-23T15:31:58;5.90;62.70
32139;DHT22;18644;48.700;9.210;2023-01-23T15:34:28;5.90;62.80
32139;DHT22;18644;48.700;9.210;2023-01-23T15:37:01;5.90;62.80
32139;DHT22;18644;48.700;9.210;2023-01-23T15:39:36;5.80;62.90
32139;DHT22;18644;48.700;9.210;2023-01-23T15:42:24;5.80;63.00
32139;DHT22;18644;48.700;9.210;2023-01-23T15:44:52;5.90;63.10
32139;DHT22;18644;48.700;9.210;2023-01-23T15:47:19;5.80;63.10
32139;DHT22;18644;48.700;9.210;2023-01-23T15:49:46;5.80;63.10
32139;DHT22;18644;48.700;9.210;2023-01-23T15:52:19;5.80;63.10
32139;DHT22;18644;48.700;9.210;2023-01-23T15:54:48;5.80;63.20
32139;DHT22;18644;48.700;9.210;2023-01-23T15:57:16;5.80;63.20
32139;DHT22;18644;48.700;9.210;2023-01-23T15:59:43;5.80;63.20
32139;DHT22;18644;48.700;9.210;2023-01-23T16:02:14;5.80;63.30
32139;DHT22;18644;48.700;9.210;2023-01-23T16:04:43;5.70;63.30
32139;DHT22;18644;48.700;9.210;2023-01-23T16:07:20;5.70;63.40
32139;DHT22;18644;48.700;9.210;2023-01-23T16:09:49;5.70;63.30
32139;DHT22;18644;48.700;9.210;2023-01-23T16:12:18;5.70;63.40
32139;DHT22;18644;48.700;9.210;2023-01-23T16:14:46;5.70;63.40
32139;DHT22;18644;48.700;9.210;2023-01-23T16:17:13;5.70;63.50
32139;DHT22;18644;48.700;9.210;2023-01-23T16:19:40;5.70;63.50
32139;DHT22;18644;48.700;9.210;2023-01-23T16:22:11;5.70;63.50